Main page
METAR-TAF:

METAR-TAF

Airports :

Mont-De-Marsan, France

latitude: 43-55N, longitude: 000-30W, elevation: 62 m

Current weather observation

The report was made 18 minutes ago, at 20:00 UTC
Wind 1 kt from the West
Temperature -1°C
Humidity 93%
Pressure 1034 hPa
Visibility 10 km or more
no clouds below 1500 m and no cumulonimbus

METAR: LFBM 212000Z AUTO 28001KT CAVOK M01/M02 Q1034 NOSIG

Time: 21:18 (20:18 UTC)

Forecast

The report was made 6 hours and 18 minutes ago, at 14:00 UTC
Forecast valid from 21 at 15 UTC to 22 at 15 UTC
Wind 6 kt from the North/Northeast
Visibility 10 km or more
Broken clouds at a height of 3000 ft
Probability 40% :
Temporary
from 22 at 02 UTC to 22 at 08 UTC
Visibility: 0600 m
freezing fog
Temporary
from 22 at 08 UTC to 22 at 12 UTC
Overcast at a height of 600 ft

TAF: LFBM 211400Z 2115/2215 03006KT 9999 BKN030 PROB40 TEMPO 2202/2208 0600 FZFG VV/// TEMPO 2208/2212 OVC006

Weather observations and forecasts of more than 4000 airports (METAR and TAF reports).

The available stations are represented by yellow and red dots on the map.

Hover mouse over dot to see the name of the station.

Then click to see weather observations and forecasts.

To change the map : click on the green buttons with a black cross to zoom in, on the green button with a dash to zoom out, or on the green arrows for adjacent maps.


METAR-TAF: